Time;durP1;ratioP1;P1;durP2;ratioP2;P2;SDS_P1;SDS_P2;PMS_P1;PMS_P2;Temp;Humidity;BMP_temperature;BMP_pressure;BME280_temperature;BME280_humidity;BME280_pressure;Samples;Min_cycle;Max_cycle;Signal;HPM_P1;HPM_P2
2021/12/13 00:00:29;;;;;;;9.93;6.43;;;5.70;99.90;;;6.02;69.12;98652.66;5007675;28;20049;-45
2021/12/13 00:03:22;;;;;;;12.47;7.40;;;5.70;99.90;;;6.02;69.68;98645.56;5007597;28;20045;-46
2021/12/13 00:06:07;;;;;;;26.55;11.65;;;5.70;99.90;;;6.03;69.63;98643.75;5006566;28;20056;-46
2021/12/13 00:08:39;;;;;;;14.40;7.93;;;5.70;99.90;;;6.03;69.48;98651.69;5006695;28;20259;-44
2021/12/13 00:11:19;;;;;;;14.90;8.30;;;5.70;99.90;;;6.02;69.65;98642.94;5007452;28;20356;-44
2021/12/13 00:13:57;;;;;;;9.53;6.63;;;5.70;99.90;;;6.01;70.05;98643.91;5005447;28;20054;-46
2021/12/13 00:16:36;;;;;;;22.10;11.87;;;5.70;99.90;;;6.01;70.41;98648.31;5008009;28;20103;-45
2021/12/13 00:19:20;;;;;;;23.50;10.40;;;5.60;99.90;;;6.00;70.09;98641.34;5007661;28;20053;-46
2021/12/13 00:21:57;;;;;;;;;;;5.60;99.90;;;5.95;69.21;98643.44;5005538;28;20068;-48
2021/12/13 00:24:32;;;;;;;11.10;5.50;;;5.60;99.90;;;6.01;69.87;98643.03;5005781;28;19923;-50
2021/12/13 00:27:19;;;;;;;7.07;4.40;;;5.70;99.90;;;6.02;69.54;98639.44;5007108;28;20053;-45
2021/12/13 00:30:17;;;;;;;9.67;5.30;;;5.70;99.90;;;6.05;70.22;98650.66;5006716;28;20364;-47
2021/12/13 00:33:31;;;;;;;11.37;5.53;;;5.80;99.90;;;6.06;69.49;98649.69;5006233;28;20050;-46
2021/12/13 00:36:33;;;;;;;10.23;6.53;;;5.80;99.90;;;6.08;69.95;98654.88;5006673;28;20518;-48
2021/12/13 00:39:48;;;;;;;17.20;9.87;;;5.90;99.90;;;6.08;69.46;98650.41;5007412;28;20246;-49
2021/12/13 00:42:18;;;;;;;14.38;7.93;;;5.80;99.90;;;6.10;69.80;98651.16;5007320;28;20076;-46
2021/12/13 00:44:53;;;;;;;18.97;11.90;;;5.80;99.90;;;6.08;70.10;98644.28;5007149;28;20075;-47
2021/12/13 00:47:31;;;;;;;22.77;13.47;;;5.80;99.90;;;6.08;69.90;98647.78;5006384;28;20229;-45
2021/12/13 00:50:15;;;;;;;16.97;8.87;;;5.80;99.90;;;6.07;70.46;98653.19;5007217;28;20054;-45
2021/12/13 00:52:44;;;;;;;15.05;9.32;;;5.70;99.90;;;6.07;70.13;98653.19;5005856;28;20054;-47
2021/12/13 00:55:38;;;;;;;10.67;6.93;;;5.70;99.90;;;6.06;69.94;98656.78;5008905;28;20291;-45
2021/12/13 00:58:16;;;;;;;7.47;4.93;;;5.70;99.90;;;6.06;70.04;98647.03;5010127;28;20061;-44
2021/12/13 01:00:59;;;;;;;19.73;11.43;;;5.70;99.90;;;6.05;70.48;98642.72;5009089;28;20053;-45
2021/12/13 01:03:44;;;;;;;30.47;16.87;;;5.70;99.90;;;6.08;69.87;98641.66;5010735;28;20060;-45
2021/12/13 01:07:13;;;;;;;18.23;10.47;;;5.80;99.90;;;6.08;70.40;98649.59;5010285;28;20049;-46
2021/12/13 01:10:53;;;;;;;14.90;8.27;;;5.90;99.90;;;6.11;70.43;98644.94;5009201;28;20057;-45
2021/12/13 01:13:43;;;;;;;9.20;6.60;;;5.90;99.90;;;6.14;70.48;98649.16;5007790;28;20065;-46
2021/12/13 01:16:24;;;;;;;13.40;9.67;;;5.90;99.90;;;6.16;70.57;98649.03;5010102;28;20331;-45
2021/12/13 01:19:27;;;;;;;11.63;8.07;;;5.90;99.90;;;6.16;70.29;98646.41;5009904;28;20352;-44
2021/12/13 01:28:31;;;;;;;12.43;8.20;;;5.80;99.90;;;6.10;70.15;98652.97;5009877;28;20049;-46
2021/12/13 01:31:18;;;;;;;9.95;6.90;;;5.80;99.90;;;6.10;70.36;98655.59;5010011;28;20057;-47
2021/12/13 01:33:50;;;;;;;9.63;6.83;;;5.70;99.90;;;6.10;70.94;98655.59;5009876;28;20053;-45
2021/12/13 01:36:25;;;;;;;10.37;6.93;;;5.80;99.90;;;6.09;70.82;98652.13;5010291;28;20284;-45
2021/12/13 01:39:04;;;;;;;8.13;5.73;;;5.80;99.90;;;6.10;70.76;98658.25;5009918;28;20054;-44
2021/12/13 01:41:45;;;;;;;7.03;5.73;;;5.80;99.90;;;6.11;70.60;98659.94;5009938;28;20050;-46
2021/12/13 01:44:24;;;;;;;8.03;6.30;;;5.80;99.90;;;6.13;71.31;98658.03;5008106;28;20256;-46
2021/12/13 01:47:10;;;;;;;10.30;6.40;;;5.80;99.90;;;6.19;70.47;98659.41;5010829;28;20053;-46
2021/12/13 01:49:44;;;;;;;7.97;5.73;;;5.90;99.90;;;6.23;70.52;98671.47;5009598;28;20383;-47
2021/12/13 01:52:24;;;;;;;9.63;6.33;;;6.00;99.90;;;6.24;70.95;98660.78;5009042;28;20046;-45
2021/12/13 01:54:56;;;;;;;12.03;6.07;;;6.00;99.90;;;6.23;70.30;98667.00;5009364;28;20340;-45
2021/12/13 01:57:39;;;;;;;9.23;6.33;;;6.00;99.90;;;6.21;70.52;98650.41;5009183;28;20058;-47
2021/12/13 02:00:32;;;;;;;9.03;6.17;;;5.90;99.90;;;6.19;71.02;98659.41;5008577;28;20326;-46
2021/12/13 02:03:02;;;;;;;10.73;6.60;;;5.90;99.90;;;6.16;70.76;98654.31;5009497;28;20057;-46
2021/12/13 02:05:33;;;;;;;10.33;6.77;;;5.80;99.90;;;6.15;70.86;98642.91;5008404;28;20048;-48
2021/12/13 02:08:11;;;;;;;13.03;7.53;;;5.80;99.90;;;6.13;70.48;98642.19;5009138;28;20049;-47
2021/12/13 02:10:53;;;;;;;10.93;6.87;;;5.80;99.90;;;6.14;70.68;98646.50;5009682;28;20223;-46
2021/12/13 02:13:37;;;;;;;8.20;5.80;;;5.80;99.90;;;6.13;70.72;98642.19;5009096;28;20056;-47
2021/12/13 02:18:58;;;;;;;6.73;5.17;;;5.80;99.90;;;6.12;70.65;98637.84;5008000;28;20591;-45
2021/12/13 02:21:35;;;;;;;9.10;5.87;;;5.80;99.90;;;6.13;71.16;98647.47;5010231;28;20058;-46
2021/12/13 02:24:09;;;;;;;12.30;6.57;;;5.80;99.90;;;6.13;70.27;98644.81;5008742;28;20049;-45
2021/12/13 02:26:50;;;;;;;9.02;5.72;;;5.80;99.90;;;6.12;70.86;98648.41;5008891;28;20057;-47
2021/12/13 02:29:35;;;;;;;9.07;5.97;;;5.80;99.90;;;6.11;71.24;98652.03;5009821;28;20060;-49
2021/12/13 02:32:09;;;;;;;11.03;6.43;;;5.80;99.90;;;6.11;71.25;98652.84;5008433;28;20050;-46
2021/12/13 02:34:42;;;;;;;10.27;6.23;;;5.70;99.90;;;6.12;70.89;98656.34;5007606;28;20060;-47
2021/12/13 02:37:12;;;;;;;7.20;5.93;;;5.80;99.90;;;6.13;71.08;98651.88;5008448;28;20252;-48
2021/12/13 02:39:47;;;;;;;9.33;5.47;;;5.80;99.90;;;6.15;70.78;98656.13;5008979;28;20054;-45
2021/12/13 02:42:18;;;;;;;9.00;5.50;;;5.90;99.90;;;6.17;71.25;98656.88;5009439;28;20054;-46
2021/12/13 02:45:03;;;;;;;9.90;5.87;;;5.90;99.90;;;6.18;70.73;98655.91;5008256;28;20213;-46
2021/12/13 02:47:37;;;;;;;11.90;6.00;;;5.90;99.90;;;6.20;71.39;98659.28;5008758;28;20052;-46
2021/12/13 02:50:25;;;;;;;7.57;5.10;;;6.00;99.90;;;6.20;70.56;98654.00;5007635;28;20058;-45
2021/12/13 02:52:53;;;;;;;7.03;5.33;;;5.90;99.90;;;6.20;71.31;98653.16;5008999;28;20063;-46
2021/12/13 02:55:28;;;;;;;9.90;5.73;;;5.90;99.90;;;6.18;70.54;98652.41;5008491;28;20054;-46
2021/12/13 02:58:08;;;;;;;8.40;5.30;;;5.90;99.90;;;6.15;70.51;98663.22;5006055;28;20066;-47
2021/12/13 03:00:51;;;;;;;5.93;5.17;;;5.80;99.90;;;6.14;70.86;98665.00;5008344;28;20442;-45
2021/12/13 03:03:30;;;;;;;6.88;5.00;;;5.80;99.90;;;6.14;71.22;98654.44;5007513;28;20050;-46
2021/12/13 03:06:02;;;;;;;6.37;5.00;;;5.80;99.90;;;6.14;70.46;98659.72;5009343;28;20052;-45
2021/12/13 03:08:38;;;;;;;6.87;5.27;;;5.80;99.90;;;6.16;70.79;98659.63;5007411;28;20046;-44
2021/12/13 03:11:22;;;;;;;6.67;4.67;;;5.90;99.90;;;6.18;70.72;98657.72;5008561;28;20058;-46
2021/12/13 03:13:56;;;;;;;;;;;5.90;99.90;;;6.14;70.65;98659.72;5007493;28;20247;-45
2021/12/13 03:16:38;;;;;;;6.15;4.55;;;5.90;99.90;;;6.19;71.05;98654.13;5010456;28;19924;-46
2021/12/13 03:19:34;;;;;;;9.00;5.73;;;5.90;99.90;;;6.22;71.07;98665.34;5027572;28;20068;-47
2021/12/13 03:23:03;;;;;;;9.93;6.13;;;6.00;99.90;;;6.22;71.09;98667.97;5027686;28;20217;-46
2021/12/13 03:25:34;;;;;;;8.37;5.90;;;6.00;99.90;;;6.24;70.31;98673.13;5026874;28;20051;-48
2021/12/13 03:28:13;;;;;;;7.40;5.10;;;6.00;99.90;;;6.23;70.96;98671.47;5027781;28;20725;-45
2021/12/13 03:30:58;;;;;;;9.53;5.67;;;6.00;99.90;;;6.23;70.71;98667.00;5027965;28;20053;-46
2021/12/13 03:34:09;;;;;;;6.97;5.00;;;6.00;99.90;;;6.24;71.05;98673.13;5027847;28;20566;-46
2021/12/13 03:36:42;;;;;;;6.73;4.63;;;6.00;99.90;;;6.26;71.57;98661.50;5027210;28;20057;-47
2021/12/13 03:39:20;;;;;;;8.02;5.20;;;6.00;99.90;;;6.27;71.63;98668.47;5027864;28;20695;-45
2021/12/13 03:41:51;;;;;;;7.87;5.57;;;6.10;99.90;;;6.29;71.12;98666.56;5026997;28;20480;-47
2021/12/13 03:44:32;;;;;;;8.47;5.77;;;6.10;99.90;;;6.29;70.82;98665.72;5026798;28;20050;-47
2021/12/13 03:47:12;;;;;;;6.47;4.37;;;6.00;99.90;;;6.27;71.34;98671.13;5025272;28;20377;-45
2021/12/13 03:49:52;;;;;;;6.67;4.60;;;6.00;99.90;;;6.27;70.66;98671.13;5027689;28;20252;-45
2021/12/13 03:52:24;;;;;;;7.53;5.43;;;6.00;99.90;;;6.28;70.87;98677.25;5027773;28;20371;-47
2021/12/13 03:54:55;;;;;;;5.87;4.83;;;6.00;99.90;;;6.29;70.85;98678.94;5027679;28;20053;-44
2021/12/13 03:57:25;;;;;;;6.53;4.37;;;6.00;99.90;;;6.29;70.84;98678.94;5026874;28;20064;-46
2021/12/13 03:59:53;;;;;;;7.17;4.13;;;6.00;99.90;;;6.29;71.25;98679.78;5026862;28;20056;-44
2021/12/13 04:02:33;;;;;;;7.00;3.97;;;6.00;99.90;;;6.31;71.42;98679.69;5026548;28;20051;-46
2021/12/13 04:05:12;;;;;;;8.10;3.67;;;6.00;99.90;;;6.29;71.25;98678.94;5026398;28;20064;-45
2021/12/13 04:07:51;;;;;;;7.30;5.13;;;6.00;99.90;;;6.29;70.94;98678.94;5028323;28;20648;-45
2021/12/13 04:10:25;;;;;;;5.67;4.37;;;6.00;99.90;;;6.28;70.80;98672.81;5027740;28;20236;-44
2021/12/13 04:12:57;;;;;;;8.43;5.03;;;6.00;99.90;;;6.27;70.54;98676.41;5026995;28;20053;-44
2021/12/13 04:16:06;;;;;;;9.30;5.83;;;5.90;99.90;;;6.26;70.54;98677.38;5025582;28;20048;-46
2021/12/13 04:21:58;;;;;;;8.50;5.77;;;6.00;99.90;;;6.28;70.97;98677.25;5026984;28;20246;-47
2021/12/13 04:25:06;;;;;;;8.07;4.50;;;6.00;99.90;;;6.28;71.13;98678.13;5026702;28;20055;-45
2021/12/13 04:27:43;;;;;;;8.43;4.10;;;6.00;99.90;;;6.29;71.63;98676.31;5025712;28;20061;-46
2021/12/13 04:30:33;;;;;;;7.40;4.47;;;6.00;99.90;;;6.33;71.11;98674.28;5026730;28;20045;-44
2021/12/13 04:33:18;;;;;;;7.60;5.43;;;6.10;99.90;;;6.37;71.03;98681.06;5026129;28;20060;-44
2021/12/13 04:35:50;;;;;;;;;;;6.10;99.90;;;6.35;70.79;98686.44;5025919;28;20263;-46
2021/12/13 04:38:26;;;;;;;7.63;4.33;;;6.20;99.90;;;6.41;70.81;98683.34;5025218;28;19925;-47
2021/12/13 04:40:55;;;;;;;5.77;3.97;;;6.20;99.90;;;6.43;71.14;98681.44;5026299;28;20045;-46
2021/12/13 04:43:24;;;;;;;6.40;4.63;;;6.20;99.90;;;6.43;71.70;98681.44;5025562;28;20076;-45
2021/12/13 04:45:59;;;;;;;6.73;5.70;;;6.20;99.90;;;6.45;71.11;98682.19;5025013;28;20056;-48
2021/12/13 04:48:32;;;;;;;8.87;6.07;;;6.30;99.90;;;6.45;71.47;98681.34;5026478;28;20054;-45
2021/12/13 04:51:13;;;;;;;10.13;8.80;;;6.30;99.90;;;6.46;71.10;98683.88;5028146;28;20057;-48
2021/12/13 04:53:49;;;;;;;8.00;6.20;;;6.30;99.90;;;6.46;71.57;98686.53;5025657;28;20049;-44
2021/12/13 04:56:24;;;;;;;5.77;5.17;;;6.30;99.90;;;6.48;71.15;98683.78;5026662;28;20054;-45
2021/12/13 04:58:56;;;;;;;9.17;5.20;;;6.30;99.90;;;6.48;71.52;98678.50;5025524;28;20344;-45
2021/12/13 05:01:26;;;;;;;7.93;5.40;;;6.30;99.90;;;6.49;71.76;98680.16;5026605;28;20049;-44
2021/12/13 05:03:59;;;;;;;8.07;5.77;;;6.30;99.90;;;6.50;71.87;98687.16;5025129;28;20059;-45
2021/12/13 05:06:33;;;;;;;5.55;4.68;;;6.30;99.90;;;6.50;71.37;98685.34;5024508;28;20054;-48
2021/12/13 05:09:08;;;;;;;7.90;5.53;;;6.30;99.90;;;6.51;71.84;98688.84;5026091;28;20049;-44
2021/12/13 05:11:49;;;;;;;7.17;5.20;;;6.30;99.90;;;6.54;71.61;98698.38;5026054;28;20055;-45
2021/12/13 05:14:30;;;;;;;6.17;4.97;;;6.30;99.90;;;6.55;71.60;98697.41;5025920;28;20057;-44
2021/12/13 05:17:05;;;;;;;8.13;5.20;;;6.40;99.90;;;6.57;71.32;98703.44;5026717;28;20251;-44
2021/12/13 05:19:39;;;;;;;7.17;4.17;;;6.40;99.90;;;6.57;71.64;98699.00;5027562;28;20053;-45
2021/12/13 05:22:11;;;;;;;8.07;5.13;;;6.40;99.90;;;6.58;71.94;98697.19;5027087;28;20049;-46
2021/12/13 05:25:01;;;;;;;8.40;4.47;;;6.40;99.90;;;6.58;71.75;98700.69;5026697;28;20041;-44
2021/12/13 05:27:40;;;;;;;10.87;9.67;;;6.50;99.90;;;6.59;71.29;98710.31;5026256;28;20056;-45
2021/12/13 05:30:24;;;;;;;8.23;6.80;;;6.40;99.90;;;6.60;71.79;98703.22;5025843;28;20042;-46
2021/12/13 05:33:01;;;;;;;8.13;4.97;;;6.50;99.90;;;6.62;71.12;98709.25;5024834;28;20053;-45
2021/12/13 05:35:41;;;;;;;7.23;4.53;;;6.50;99.90;;;6.65;71.29;98709.00;5025224;28;20277;-44
2021/12/13 05:38:37;;;;;;;8.57;4.60;;;6.50;99.90;;;6.64;71.59;98712.63;5025368;28;20251;-47
2021/12/13 05:41:08;;;;;;;6.43;4.47;;;6.50;99.90;;;6.64;71.51;98718.75;5028862;28;20053;-45
2021/12/13 05:43:52;;;;;;;8.07;4.23;;;6.40;99.90;;;6.64;71.48;98723.22;5029848;28;20053;-46
2021/12/13 05:46:41;;;;;;;5.18;4.18;;;6.50;99.90;;;6.65;71.34;98725.75;5030325;28;20049;-46
2021/12/13 05:49:21;;;;;;;7.00;4.57;;;6.40;99.90;;;6.67;71.56;98723.00;5028733;28;20037;-44
2021/12/13 05:52:05;;;;;;;6.00;4.43;;;6.50;99.90;;;6.67;71.04;98725.66;5029054;28;20049;-44
2021/12/13 05:54:45;;;;;;;7.00;4.57;;;6.40;99.90;;;6.67;71.41;98731.78;5028727;28;20049;-45
2021/12/13 05:57:19;;;;;;;6.57;4.80;;;6.50;99.90;;;6.67;71.47;98730.94;5028553;28;20049;-44
2021/12/13 06:00:21;;;;;;;8.87;4.63;;;6.50;99.90;;;6.69;71.60;98736.97;5029053;28;20049;-44
2021/12/13 06:03:17;;;;;;;7.63;5.97;;;6.60;99.90;;;6.70;70.89;98738.63;5028859;28;20049;-44
2021/12/13 06:05:52;;;;;;;8.53;5.80;;;6.50;99.90;;;6.74;71.30;98747.22;5028526;28;20045;-45
2021/12/13 06:08:30;;;;;;;22.77;10.90;;;6.50;99.90;;;6.72;71.43;98739.38;5030101;28;20057;-47
2021/12/13 06:11:12;;;;;;;23.27;12.60;;;6.60;99.90;;;6.73;71.56;98737.56;5029488;28;20049;-45
2021/12/13 06:13:42;;;;;;;14.77;8.37;;;6.50;99.90;;;6.71;71.69;98737.69;5028971;28;20057;-46
2021/12/13 06:16:23;;;;;;;9.90;5.90;;;6.50;99.90;;;6.73;71.39;98732.28;5028285;28;20053;-45
2021/12/13 06:18:57;;;;;;;12.90;6.17;;;6.50;99.90;;;6.73;71.76;98740.22;5027271;28;20362;-45
2021/12/13 06:21:40;;;;;;;6.18;4.75;;;6.50;99.90;;;6.72;71.50;98738.53;5029695;28;20045;-48
2021/12/13 06:24:11;;;;;;;8.30;5.40;;;6.50;99.90;;;6.72;71.92;98738.53;5027006;28;20340;-48
2021/12/13 06:26:39;;;;;;;7.40;4.67;;;6.50;99.90;;;6.71;71.65;98735.06;5028358;28;20059;-47
2021/12/13 06:29:08;;;;;;;7.53;5.33;;;6.50;99.90;;;6.71;71.32;98737.69;5028647;28;20260;-47
2021/12/13 06:31:44;;;;;;;8.43;4.90;;;6.50;99.90;;;6.70;71.88;98734.19;5027352;28;20049;-45
2021/12/13 06:34:16;;;;;;;18.33;9.23;;;6.50;99.90;;;6.72;71.66;98739.38;5028208;28;20365;-46
2021/12/13 06:36:50;;;;;;;10.73;6.50;;;6.50;99.90;;;6.73;71.44;98734.91;5027957;28;20049;-45
2021/12/13 06:39:28;;;;;;;12.25;7.22;;;6.50;99.90;;;6.71;71.28;98737.69;5028261;28;20052;-46
2021/12/13 06:42:05;;;;;;;9.03;5.80;;;6.50;99.90;;;6.73;71.24;98737.56;5024910;28;20045;-46
2021/12/13 06:44:41;;;;;;;7.53;5.37;;;6.50;99.90;;;6.72;71.08;98739.38;5028192;28;20056;-48
2021/12/13 06:47:13;;;;;;;9.30;6.83;;;6.40;99.90;;;6.69;71.51;98751.03;5026977;28;20049;-48
2021/12/13 06:49:48;;;;;;;15.67;10.37;;;6.50;99.90;;;6.67;71.63;98747.66;5027752;28;20049;-45
2021/12/13 06:52:15;;;;;;;15.00;13.40;;;6.40;99.90;;;6.64;71.37;98754.97;5027092;28;20052;-46
2021/12/13 06:54:55;;;;;;;14.53;10.30;;;6.30;99.90;;;6.58;71.12;98752.75;5028082;28;20071;-47
2021/12/13 06:57:31;;;;;;;11.17;8.07;;;6.30;99.90;;;6.59;71.95;98757.06;5027940;28;20049;-48
2021/12/13 07:00:01;;;;;;;19.23;12.83;;;6.30;99.90;;;6.58;71.91;98755.41;5029072;28;20064;-49
2021/12/13 07:02:49;;;;;;;10.53;7.63;;;6.30;99.90;;;6.56;71.88;98755.50;5027798;28;20049;-49
2021/12/13 07:05:31;;;;;;;9.77;6.80;;;6.30;99.90;;;6.56;71.14;98765.25;5028690;28;20052;-47
2021/12/13 07:08:10;;;;;;;8.37;5.93;;;6.20;99.90;;;6.54;71.23;98759.22;5027937;28;20053;-46
2021/12/13 07:11:12;;;;;;;9.53;5.53;;;6.20;99.90;;;6.51;71.20;98765.56;5027144;28;20045;-46
2021/12/13 07:14:04;;;;;;;9.53;5.00;;;6.20;99.90;;;6.52;71.50;98753.19;5025001;28;20072;-47
2021/12/13 07:16:39;;;;;;;7.60;5.30;;;6.20;99.90;;;6.50;71.77;98754.13;5026951;28;20087;-48
2021/12/13 07:19:26;;;;;;;6.57;5.17;;;6.20;99.90;;;6.50;71.68;98753.31;5028188;28;20087;-47
2021/12/13 07:22:01;;;;;;;7.17;4.57;;;6.30;99.90;;;6.49;71.72;98757.75;5026608;28;20067;-47
2021/12/13 07:24:45;;;;;;;9.20;5.67;;;6.30;99.90;;;6.50;71.67;98745.38;5027657;28;20240;-47
2021/12/13 07:27:20;;;;;;;8.05;5.20;;;6.20;99.90;;;6.48;72.14;98749.91;5026777;28;20244;-47
2021/12/13 07:30:11;;;;;;;7.30;5.00;;;6.20;99.90;;;6.48;71.75;98756.06;5027534;28;20060;-51
2021/12/13 07:32:59;;;;;;;6.50;4.83;;;6.30;99.90;;;6.51;71.86;98760.25;5026076;28;20049;-45
2021/12/13 07:35:45;;;;;;;11.67;6.33;;;6.30;99.90;;;6.54;71.61;98762.72;5027743;28;20057;-50
2021/12/13 07:38:16;;;;;;;10.17;6.30;;;6.30;99.90;;;6.55;71.73;98766.19;5026904;28;20052;-49
2021/12/13 07:40:51;;;;;;;8.33;5.83;;;6.30;99.90;;;6.54;72.16;98769.81;5027831;28;20087;-50
2021/12/13 07:43:21;;;;;;;7.53;4.53;;;6.40;99.90;;;6.57;71.88;98769.56;5026640;28;20043;-47
2021/12/13 07:46:06;;;;;;;17.10;8.73;;;6.40;99.90;;;6.60;71.94;98769.38;5023891;28;20057;-47
2021/12/13 07:48:38;;;;;;;13.50;7.83;;;6.40;99.90;;;6.61;71.74;98765.75;5027787;28;20045;-46
2021/12/13 07:51:22;;;;;;;10.27;6.90;;;6.40;99.90;;;6.59;71.54;98760.59;5027745;28;20049;-49
2021/12/13 07:53:59;;;;;;;8.07;6.75;;;6.40;99.90;;;6.58;71.58;98763.34;5026341;28;20057;-48
2021/12/13 07:56:33;;;;;;;8.83;6.00;;;6.30;99.90;;;6.58;72.27;98761.53;5026308;28;20064;-46
2021/12/13 07:59:14;;;;;;;7.67;5.47;;;6.30;99.90;;;6.60;72.31;98766.72;5027607;28;20059;-46
2021/12/13 08:02:18;;;;;;;10.40;5.87;;;6.30;99.90;;;6.59;71.95;98768.53;5028246;28;20263;-47
2021/12/13 08:04:52;;;;;;;9.47;5.27;;;6.30;99.90;;;6.59;72.02;98765.88;5025925;28;20041;-48
2021/12/13 08:07:28;;;;;;;9.93;5.90;;;6.30;99.90;;;6.60;72.33;98774.66;5025928;28;20047;-46
2021/12/13 08:09:59;;;;;;;10.80;6.00;;;6.40;99.90;;;6.63;71.86;98780.59;5026751;28;20242;-49
2021/12/13 08:12:48;;;;;;;14.37;6.17;;;6.40;99.90;;;6.64;72.52;98779.63;5026203;28;20045;-47
2021/12/13 08:15:34;;;;;;;7.37;5.10;;;6.40;99.90;;;6.69;72.03;98779.31;5026619;28;20247;-49
2021/12/13 08:18:34;;;;;;;6.60;4.90;;;6.40;99.90;;;6.69;71.94;98780.16;5027003;28;20057;-48
2021/12/13 08:21:23;;;;;;;8.87;4.53;;;6.50;99.90;;;6.75;72.18;98780.69;5023442;28;20049;-48
2021/12/13 08:24:01;;;;;;;8.07;4.90;;;6.50;99.90;;;6.78;72.42;98775.97;5025053;28;20159;-47
2021/12/13 08:26:39;;;;;;;9.50;5.30;;;6.60;99.90;;;6.81;72.38;98786.38;5024052;28;20053;-47
2021/12/13 08:29:38;;;;;;;7.03;4.77;;;6.60;99.90;;;6.84;72.33;98780.00;5034375;28;20233;-46
2021/12/13 08:32:23;;;;;;;9.60;4.60;;;6.60;99.90;;;6.85;71.86;98777.25;5038065;28;20052;-45
2021/12/13 08:34:58;;;;;;;7.03;4.55;;;6.70;99.90;;;6.87;72.28;98777.16;5036349;28;20063;-47
2021/12/13 08:37:41;;;;;;;9.87;4.50;;;6.60;99.90;;;6.90;72.54;98779.56;5038294;28;20060;-47
2021/12/13 08:40:21;;;;;;;11.83;7.10;;;6.70;99.90;;;6.95;72.25;98789.84;5028686;28;20053;-47
2021/12/13 08:42:52;;;;;;;10.40;6.23;;;6.80;99.90;;;6.98;72.85;98786.94;5026145;28;20049;-46
2021/12/13 08:45:30;;;;;;;11.93;8.50;;;6.80;99.90;;;7.02;72.29;98797.22;5025953;28;20059;-48
2021/12/13 08:48:13;;;;;;;8.10;5.40;;;6.90;99.90;;;7.05;72.26;98793.50;5027096;28;20382;-47
2021/12/13 08:50:57;;;;;;;9.07;5.47;;;6.90;99.90;;;7.06;72.48;98782.81;5026368;28;20064;-46
2021/12/13 08:53:38;;;;;;;7.43;4.85;;;7.00;99.90;;;7.10;72.52;98792.22;5026092;28;20053;-47
2021/12/13 08:56:21;;;;;;;10.13;5.10;;;7.00;99.90;;;7.16;72.13;98798.03;5025458;28;20256;-46
2021/12/13 08:59:03;;;;;;;7.63;5.00;;;7.00;99.90;;;7.20;72.21;98792.38;5024894;28;20061;-47
2021/12/13 09:01:48;;;;;;;7.10;4.30;;;7.10;99.90;;;7.26;72.22;98797.22;5032997;28;20052;-47
2021/12/13 09:04:33;;;;;;;11.40;7.33;;;7.20;99.90;;;7.32;72.54;98803.88;5033057;28;20259;-46
2021/12/13 09:07:05;;;;;;;23.80;15.00;;;7.20;99.90;;;7.35;72.35;98800.16;5030417;28;20049;-46
2021/12/13 09:09:34;;;;;;;13.87;7.70;;;7.30;99.90;;;7.39;72.33;98799.00;5028572;28;20063;-44
2021/12/13 09:12:09;;;;;;;11.63;6.70;;;7.30;99.90;;;7.43;72.17;98809.25;5036453;28;20051;-54
2021/12/13 09:14:50;;;;;;;11.23;5.30;;;7.40;99.90;;;7.46;72.44;98808.16;5025662;28;20069;-52
2021/12/13 09:17:41;;;;;;;7.73;4.73;;;7.40;99.90;;;7.48;72.41;98820.38;5037954;28;20063;-52
2021/12/13 09:20:37;;;;;;;8.50;4.50;;;7.40;99.90;;;7.52;72.09;98813.00;5035076;28;20363;-55
2021/12/13 09:23:24;;;;;;;8.77;4.40;;;7.40;99.90;;;7.54;72.02;98819.06;5030207;28;20266;-53
2021/12/13 09:26:12;;;;;;;5.30;4.10;;;7.40;99.90;;;7.54;71.90;98808.47;5048821;28;20071;-56
2021/12/13 09:29:01;;;;;;;9.13;5.13;;;7.40;99.90;;;7.55;72.17;98820.75;5049733;28;20045;-54
2021/12/13 09:31:35;;;;;;;7.30;4.93;;;7.40;99.90;;;7.59;72.24;98821.38;5042238;28;20063;-51
2021/12/13 09:34:18;;;;;;;8.93;4.68;;;7.50;99.90;;;7.62;72.53;98822.00;5021130;28;20247;-53
2021/12/13 09:36:54;;;;;;;7.03;4.47;;;7.50;99.90;;;7.67;72.28;98811.03;5029240;28;20053;-53
2021/12/13 09:39:28;;;;;;;8.30;5.13;;;7.60;99.90;;;7.70;72.52;98816.13;5029829;28;20056;-54
2021/12/13 09:42:16;;;;;;;7.40;4.03;;;7.60;99.90;;;7.75;72.36;98815.75;5029260;28;20271;-53
2021/12/13 09:45:02;;;;;;;8.20;4.13;;;7.70;99.90;;;7.79;72.22;98806.63;5030643;28;20239;-54
2021/12/13 09:47:41;;;;;;;19.67;4.70;;;7.70;99.90;;;7.83;72.26;98808.94;5035241;28;20398;-53
2021/12/13 09:50:34;;;;;;;7.37;4.20;;;7.70;99.90;;;7.86;72.25;98805.22;5036845;28;20057;-54
2021/12/13 09:53:31;;;;;;;7.00;4.23;;;7.70;99.90;;;7.88;72.29;98804.13;5023008;28;20367;-55
2021/12/13 09:56:17;;;;;;;7.07;4.70;;;7.80;99.90;;;7.93;72.17;98806.44;5039381;28;20243;-56
2021/12/13 09:59:05;;;;;;;8.33;4.73;;;7.90;99.90;;;7.97;72.17;98804.38;5040223;28;20046;-46
2021/12/13 10:01:39;;;;;;;8.70;4.43;;;7.90;99.90;;;8.01;72.00;98798.75;5039947;28;20068;-46
2021/12/13 10:04:15;;;;;;;8.83;4.50;;;8.00;99.90;;;8.04;72.29;98803.78;5023664;28;20060;-44
2021/12/13 10:07:01;;;;;;;6.57;4.78;;;8.00;99.90;;;8.08;72.32;98802.63;5040977;28;20327;-46
2021/12/13 10:09:44;;;;;;;7.87;5.27;;;8.10;99.90;;;8.13;72.27;98802.25;5039414;28;20537;-46
2021/12/13 10:12:44;;;;;;;10.93;5.93;;;8.20;99.90;;;8.18;72.08;98794.81;5040667;28;20046;-45
2021/12/13 10:15:23;;;;;;;8.00;5.47;;;8.20;99.90;;;8.23;72.05;98792.63;5040404;28;20053;-49
2021/12/13 10:18:04;;;;;;;8.90;5.00;;;8.20;99.90;;;8.26;72.16;98794.22;5040604;28;20041;-45
2021/12/13 10:20:52;;;;;;;7.70;4.73;;;8.30;99.90;;;8.29;72.11;98786.84;5039481;28;20053;-49
2021/12/13 10:23:29;;;;;;;9.03;5.03;;;8.30;99.90;;;8.31;72.01;98778.78;5040546;28;20053;-49
2021/12/13 10:26:19;;;;;;;9.67;4.83;;;8.30;99.90;;;8.34;72.01;98777.72;5040237;28;20378;-47
2021/12/13 10:28:56;;;;;;;9.30;5.63;;;8.30;99.90;;;8.35;71.77;98780.22;5039561;28;20064;-46
2021/12/13 10:31:47;;;;;;;7.87;4.83;;;8.40;99.90;;;8.38;72.04;98779.16;5040830;28;20235;-46
2021/12/13 10:34:23;;;;;;;6.60;5.00;;;8.40;99.90;;;8.40;71.87;98786.03;5040518;28;20041;-46
2021/12/13 10:37:08;;;;;;;7.77;5.23;;;8.40;99.90;;;8.44;72.03;98776.88;5041308;28;20049;-47
2021/12/13 10:39:45;;;;;;;6.37;4.77;;;8.40;99.90;;;8.51;72.05;98776.41;5039522;28;20057;-51
2021/12/13 10:42:38;;;;;;;6.03;4.37;;;8.50;99.90;;;8.55;71.82;98772.53;5040480;28;20063;-49
2021/12/13 10:45:13;;;;;;;7.70;4.50;;;8.60;99.90;;;8.61;72.21;98772.06;5037642;28;20359;-49
2021/12/13 10:47:46;;;;;;;6.40;4.40;;;8.60;99.90;;;8.65;72.16;98773.53;5039708;28;20338;-46
2021/12/13 10:50:37;;;;;;;9.00;5.10;;;8.70;99.90;;;8.69;72.03;98769.66;5039925;28;20061;-46
2021/12/13 10:53:09;;;;;;;7.03;5.20;;;8.70;99.90;;;8.73;72.00;98773.75;5040565;28;20047;-45
2021/12/13 10:55:46;;;;;;;10.43;5.57;;;8.80;99.90;;;8.78;72.07;98773.38;5037760;28;20356;-47
2021/12/13 10:58:17;;;;;;;9.70;5.43;;;8.80;99.90;;;8.80;71.99;98768.78;5008282;28;20248;-47
2021/12/13 11:00:58;;;;;;;6.20;4.57;;;8.90;99.90;;;8.82;71.80;98773.03;5006657;28;20058;-45
2021/12/13 11:03:30;;;;;;;7.63;5.43;;;8.90;99.90;;;8.84;71.85;98763.13;5007361;28;20053;-48
2021/12/13 11:05:58;;;;;;;7.70;5.10;;;8.90;99.90;;;8.84;71.73;98755.16;5009043;28;20095;-39
2021/12/13 11:08:28;;;;;;;7.47;5.27;;;8.90;99.90;;;8.87;71.92;98756.72;5006723;28;20064;-39
2021/12/13 11:11:27;;;;;;;8.33;4.63;;;8.90;99.90;;;8.90;71.67;98758.25;5009087;28;20058;-39
2021/12/13 11:14:04;;;;;;;6.63;4.90;;;8.90;99.90;;;8.94;71.71;98762.38;5006715;28;20065;-39
2021/12/13 11:16:41;;;;;;;6.57;4.40;;;9.00;99.90;;;8.96;71.55;98760.44;5008197;28;20061;-40
2021/12/13 11:19:18;;;;;;;7.87;4.33;;;9.00;99.90;;;8.98;71.66;98753.19;5006989;28;20132;-40
2021/12/13 11:21:50;;;;;;;9.03;4.23;;;9.00;99.90;;;9.02;71.70;98757.28;5008718;28;20060;-40
2021/12/13 11:24:23;;;;;;;5.70;3.97;;;9.10;99.90;;;9.06;71.48;98753.41;5007525;28;20050;-40
2021/12/13 11:27:01;;;;;;;5.47;4.00;;;9.10;99.90;;;9.07;71.51;98745.31;5007578;28;20060;-40
2021/12/13 11:29:30;;;;;;;6.10;3.60;;;9.10;99.90;;;9.10;71.95;98740.72;5008799;28;20052;-39
2021/12/13 11:32:38;;;;;;;6.07;3.80;;;9.20;99.90;;;9.12;71.57;98739.63;5007546;28;20034;-40
2021/12/13 11:35:15;;;;;;;5.20;4.03;;;9.20;99.90;;;9.14;71.70;98735.03;5008120;28;20050;-40
2021/12/13 11:38:17;;;;;;;5.47;3.17;;;9.20;99.90;;;9.17;71.75;98736.59;5007658;28;20041;-40
2021/12/13 11:41:29;;;;;;;8.03;4.10;;;9.20;99.90;;;9.19;71.64;98745.28;5007164;28;20048;-40